Time;durP1;ratioP1;P1;durP2;ratioP2;P2;SDS_P1;SDS_P2;PMS_P1;PMS_P2;Temp;Humidity;BMP_temperature;BMP_pressure;BME280_temperature;BME280_humidity;BME280_pressure;Samples;Min_cycle;Max_cycle;Signal;HPM_P1;HPM_P2
2021/05/15 00:01:28;;;;;;;16.88;11.07;;;;;;;;;;5026227;28;20100;-68
2021/05/15 00:03:56;;;;;;;18.02;12.27;;;;;;;;;;5006905;28;20534;-68
2021/05/15 00:06:22;;;;;;;14.93;10.52;;;;;;;;;;5028537;28;20050;-68
2021/05/15 00:08:48;;;;;;;16.88;11.55;;;;;;;;;;5025325;28;20048;-68
2021/05/15 00:11:15;;;;;;;17.50;12.10;;;;;;;;;;5024640;28;20033;-68
2021/05/15 00:13:41;;;;;;;18.52;12.45;;;;;;;;;;5024715;28;20136;-68
2021/05/15 00:16:07;;;;;;;19.85;12.98;;;;;;;;;;5028161;28;20033;-68
2021/05/15 00:18:34;;;;;;;18.02;11.52;;;;;;;;;;5024043;28;20053;-68
2021/05/15 00:21:00;;;;;;;19.35;12.45;;;;;;;;;;5025646;28;20109;-68
2021/05/15 00:23:26;;;;;;;18.10;12.07;;;;;;;;;;5028726;28;20044;-70
2021/05/15 00:25:54;;;;;;;21.35;11.90;;;;;;;;;;5009348;28;20045;-68
2021/05/15 00:28:20;;;;;;;21.23;12.82;;;;;;;;;;5026765;28;20443;-68
2021/05/15 00:30:47;;;;;;;20.80;12.70;;;;;;;;;;5023747;28;20080;-69
2021/05/15 00:33:13;;;;;;;18.00;12.80;;;;;;;;;;5025213;28;20473;-68
2021/05/15 00:35:39;;;;;;;23.25;12.73;;;;;;;;;;5027051;28;20045;-68
2021/05/15 00:38:06;;;;;;;18.95;12.35;;;;;;;;;;5027393;28;20086;-68
2021/05/15 00:40:32;;;;;;;19.95;11.90;;;;;;;;;;5027202;28;20083;-68
2021/05/15 00:42:59;;;;;;;20.58;12.95;;;;;;;;;;5025489;28;20096;-68
2021/05/15 00:45:26;;;;;;;20.88;12.55;;;;;;;;;;5025137;28;20048;-68
2021/05/15 00:47:53;;;;;;;24.73;12.38;;;;;;;;;;5027794;28;20052;-68
2021/05/15 00:50:19;;;;;;;16.27;11.80;;;;;;;;;;5025385;28;20122;-68
2021/05/15 00:52:47;;;;;;;16.88;12.95;;;;;;;;;;5026380;28;20029;-68
2021/05/15 00:55:14;;;;;;;24.90;13.13;;;;;;;;;;5023445;28;20055;-68
2021/05/15 00:57:40;;;;;;;18.88;11.48;;;;;;;;;;5026563;28;20331;-68
2021/05/15 01:00:08;;;;;;;23.20;12.57;;;;;;;;;;5025262;28;21077;-68
2021/05/15 01:02:34;;;;;;;18.55;12.65;;;;;;;;;;5012341;28;20132;-68
2021/05/15 01:05:01;;;;;;;18.38;12.85;;;;;;;;;;5024300;28;20042;-68
2021/05/15 01:07:27;;;;;;;23.05;13.02;;;;;;;;;;5024500;28;20056;-68
2021/05/15 01:09:53;;;;;;;17.98;11.75;;;;;;;;;;5024246;28;20049;-68
2021/05/15 01:12:19;;;;;;;16.55;11.05;;;;;;;;;;5024284;28;20129;-68
2021/05/15 01:14:46;;;;;;;21.33;13.25;;;;;;;;;;5025450;28;20045;-68
2021/05/15 01:17:12;;;;;;;20.20;12.63;;;;;;;;;;5026973;28;20046;-68
2021/05/15 01:19:39;;;;;;;22.88;12.48;;;;;;;;;;5024444;28;20516;-68
2021/05/15 01:22:06;;;;;;;18.90;11.82;;;;;;;;;;5024644;28;20091;-68
2021/05/15 01:24:32;;;;;;;17.52;11.90;;;;;;;;;;5024386;28;20438;-68
2021/05/15 01:27:00;;;;;;;25.13;12.27;;;;;;;;;;5025892;28;20413;-68
2021/05/15 01:29:27;;;;;;;20.02;13.45;;;;;;;;;;5021596;28;20116;-68
2021/05/15 01:31:54;;;;;;;19.88;12.75;;;;;;;;;;5023775;28;20053;-68
2021/05/15 01:34:20;;;;;;;19.50;13.77;;;;;;;;;;5024809;28;20111;-68
2021/05/15 01:36:46;;;;;;;18.95;12.57;;;;;;;;;;5008732;28;20049;-68
2021/05/15 01:39:14;;;;;;;21.45;13.13;;;;;;;;;;5024934;28;20203;-68
2021/05/15 01:41:41;;;;;;;19.23;13.45;;;;;;;;;;5027092;28;20045;-68
2021/05/15 01:44:07;;;;;;;22.73;13.15;;;;;;;;;;5023480;28;20049;-68
2021/05/15 01:46:34;;;;;;;19.58;12.05;;;;;;;;;;5025111;28;20096;-68
2021/05/15 01:49:00;;;;;;;19.55;12.18;;;;;;;;;;5026496;28;20045;-68
2021/05/15 01:51:27;;;;;;;20.67;14.00;;;;;;;;;;5023784;28;20485;-68
2021/05/15 01:53:53;;;;;;;17.65;12.63;;;;;;;;;;5024503;28;20048;-68
2021/05/15 01:56:23;;;;;;;19.75;12.80;;;;;;;;;;5024318;28;20037;-68
2021/05/15 01:58:49;;;;;;;19.60;13.02;;;;;;;;;;5024687;28;20068;-68
2021/05/15 02:01:16;;;;;;;23.30;13.50;;;;;;;;;;5023375;28;20476;-68
2021/05/15 02:03:43;;;;;;;23.27;14.10;;;;;;;;;;5022482;28;20048;-68
2021/05/15 02:06:10;;;;;;;24.27;14.45;;;;;;;;;;5025374;28;20060;-68
2021/05/15 02:08:36;;;;;;;20.35;12.88;;;;;;;;;;5021391;28;20042;-69
2021/05/15 02:11:03;;;;;;;20.83;13.75;;;;;;;;;;5024979;28;20052;-68
2021/05/15 02:13:30;;;;;;;22.10;13.43;;;;;;;;;;5022838;28;20143;-68
2021/05/15 02:15:57;;;;;;;19.30;12.23;;;;;;;;;;5023444;28;20041;-68
2021/05/15 02:18:24;;;;;;;19.83;12.27;;;;;;;;;;5004165;28;20080;-68
2021/05/15 02:20:51;;;;;;;18.33;12.68;;;;;;;;;;5024424;28;20167;-68
2021/05/15 02:23:19;;;;;;;19.80;13.50;;;;;;;;;;5025626;28;20137;-68
2021/05/15 02:25:46;;;;;;;20.52;12.70;;;;;;;;;;5023492;28;20041;-68
2021/05/15 02:28:13;;;;;;;20.77;12.77;;;;;;;;;;5025148;28;20088;-68
2021/05/15 02:30:39;;;;;;;20.73;12.20;;;;;;;;;;5023876;28;20375;-68
2021/05/15 02:33:06;;;;;;;22.55;12.70;;;;;;;;;;5021168;28;20052;-68
2021/05/15 02:35:32;;;;;;;19.23;12.48;;;;;;;;;;5025744;28;20156;-68
2021/05/15 02:37:58;;;;;;;18.65;12.52;;;;;;;;;;5025524;28;20041;-68
2021/05/15 02:40:26;;;;;;;21.50;13.20;;;;;;;;;;5023777;28;20099;-68
2021/05/15 02:42:54;;;;;;;21.75;13.85;;;;;;;;;;5025909;28;20038;-68
2021/05/15 02:45:22;;;;;;;21.00;12.35;;;;;;;;;;5022180;28;20042;-68
2021/05/15 02:47:49;;;;;;;21.50;12.82;;;;;;;;;;5023930;28;20045;-68
2021/05/15 02:50:16;;;;;;;19.70;12.35;;;;;;;;;;5023170;28;20061;-68
2021/05/15 02:52:43;;;;;;;18.83;12.05;;;;;;;;;;5023622;28;20029;-68
2021/05/15 02:55:11;;;;;;;22.58;13.00;;;;;;;;;;5023995;28;20112;-68
2021/05/15 02:57:37;;;;;;;21.33;13.25;;;;;;;;;;5025578;28;20037;-68
2021/05/15 03:00:05;;;;;;;21.55;13.10;;;;;;;;;;5022414;28;20049;-68
2021/05/15 03:02:32;;;;;;;24.30;14.20;;;;;;;;;;5025873;28;20462;-69
2021/05/15 03:04:58;;;;;;;19.58;12.25;;;;;;;;;;5021893;28;20054;-68
2021/05/15 03:07:24;;;;;;;24.17;13.63;;;;;;;;;;5022320;28;20068;-68
2021/05/15 03:09:51;;;;;;;17.00;11.77;;;;;;;;;;5023657;28;20141;-68
2021/05/15 03:12:17;;;;;;;21.65;12.77;;;;;;;;;;5020644;28;20051;-68
2021/05/15 03:14:43;;;;;;;19.65;13.52;;;;;;;;;;5015567;28;20382;-68
2021/05/15 03:17:10;;;;;;;20.38;12.35;;;;;;;;;;5021964;28;20037;-68
2021/05/15 03:19:36;;;;;;;21.90;12.93;;;;;;;;;;5023183;28;20045;-68
2021/05/15 03:22:03;;;;;;;20.35;14.50;;;;;;;;;;5022521;28;20436;-68
2021/05/15 03:24:30;;;;;;;20.77;13.80;;;;;;;;;;5028047;28;20037;-68
2021/05/15 03:26:58;;;;;;;23.15;12.68;;;;;;;;;;5028150;28;20041;-68
2021/05/15 03:29:24;;;;;;;20.63;12.32;;;;;;;;;;5026753;28;20411;-68
2021/05/15 03:31:50;;;;;;;22.38;11.55;;;;;;;;;;5026551;28;20100;-68
2021/05/15 03:34:17;;;;;;;17.23;10.98;;;;;;;;;;5026667;28;20494;-68
2021/05/15 03:36:43;;;;;;;19.73;11.68;;;;;;;;;;5027118;28;20045;-68
2021/05/15 03:39:17;;;;;;;20.52;12.77;;;;;;;;;;5026509;28;20061;-68
2021/05/15 03:41:43;;;;;;;21.15;11.90;;;;;;;;;;5025575;28;20542;-68
2021/05/15 03:44:09;;;;;;;22.13;13.27;;;;;;;;;;5022940;28;20171;-69
2021/05/15 03:46:36;;;;;;;20.23;12.73;;;;;;;;;;5011307;28;20412;-68
2021/05/15 03:49:02;;;;;;;22.15;12.93;;;;;;;;;;5027855;28;20501;-68
2021/05/15 03:51:29;;;;;;;22.05;12.60;;;;;;;;;;5027858;28;20497;-68
2021/05/15 03:53:55;;;;;;;22.00;12.70;;;;;;;;;;5026953;28;20062;-68
2021/05/15 03:56:21;;;;;;;23.38;13.40;;;;;;;;;;5027910;28;20045;-68
2021/05/15 03:58:47;;;;;;;19.88;12.80;;;;;;;;;;5027499;28;20100;-68
2021/05/15 04:01:13;;;;;;;21.38;12.25;;;;;;;;;;5027695;28;20402;-68
2021/05/15 04:03:43;;;;;;;21.98;13.95;;;;;;;;;;5024387;28;20042;-68
2021/05/15 04:06:09;;;;;;;21.45;12.50;;;;;;;;;;5027961;28;20452;-68
2021/05/15 04:08:35;;;;;;;20.20;14.75;;;;;;;;;;5024507;28;20056;-68
2021/05/15 04:11:02;;;;;;;24.95;14.82;;;;;;;;;;5025352;28;20053;-68
2021/05/15 04:13:39;;;;;;;24.65;14.25;;;;;;;;;;5024566;28;20037;-68
2021/05/15 04:16:13;;;;;;;20.52;13.05;;;;;;;;;;5026876;28;20104;-68
2021/05/15 04:18:39;;;;;;;21.92;14.20;;;;;;;;;;5026666;28;20145;-68
2021/05/15 04:21:06;;;;;;;24.65;13.77;;;;;;;;;;5026094;28;20071;-68
2021/05/15 04:23:32;;;;;;;22.60;13.90;;;;;;;;;;5027162;28;20038;-68
2021/05/15 04:25:59;;;;;;;22.23;13.82;;;;;;;;;;5025993;28;20064;-68
2021/05/15 04:28:25;;;;;;;20.63;13.98;;;;;;;;;;5027875;28;20120;-68
2021/05/15 04:30:52;;;;;;;25.67;16.08;;;;;;;;;;5024850;28;20104;-68
2021/05/15 04:33:22;;;;;;;22.23;14.00;;;;;;;;;;5025501;28;20042;-68
2021/05/15 04:35:50;;;;;;;19.52;13.98;;;;;;;;;;5025435;28;20215;-68
2021/05/15 04:38:17;;;;;;;24.10;13.85;;;;;;;;;;5025351;28;20038;-68
2021/05/15 04:40:43;;;;;;;19.88;13.45;;;;;;;;;;5026766;28;20041;-68
2021/05/15 04:43:09;;;;;;;22.63;13.90;;;;;;;;;;5026448;28;20041;-68
2021/05/15 04:45:37;;;;;;;26.98;14.70;;;;;;;;;;5022470;28;20061;-69
2021/05/15 04:48:03;;;;;;;21.80;13.52;;;;;;;;;;5027018;28;20041;-68
2021/05/15 04:50:29;;;;;;;22.40;13.52;;;;;;;;;;5027750;28;20037;-68
2021/05/15 04:52:56;;;;;;;21.33;14.20;;;;;;;;;;5025355;28;20049;-68
2021/05/15 04:55:22;;;;;;;19.80;13.55;;;;;;;;;;5023804;28;20527;-68
2021/05/15 04:57:48;;;;;;;19.60;13.63;;;;;;;;;;5027266;28;20045;-68
2021/05/15 05:00:15;;;;;;;19.92;14.27;;;;;;;;;;5024569;28;20148;-68
2021/05/15 05:02:41;;;;;;;24.23;13.82;;;;;;;;;;5025927;28;20136;-68
2021/05/15 05:05:08;;;;;;;23.65;15.23;;;;;;;;;;5023687;28;20061;-68
2021/05/15 05:07:34;;;;;;;23.05;14.32;;;;;;;;;;5022431;28;20073;-68
2021/05/15 05:10:00;;;;;;;24.50;15.02;;;;;;;;;;5025200;28;20068;-68
2021/05/15 05:12:27;;;;;;;28.17;14.52;;;;;;;;;;5023812;28;20033;-68
2021/05/15 05:14:53;;;;;;;24.65;13.85;;;;;;;;;;5023060;28;20064;-68
2021/05/15 05:17:20;;;;;;;21.90;13.82;;;;;;;;;;5026895;28;20049;-68
2021/05/15 05:19:46;;;;;;;22.48;15.00;;;;;;;;;;5022393;28;20046;-68
2021/05/15 05:22:12;;;;;;;21.55;14.95;;;;;;;;;;5007479;28;20363;-69
2021/05/15 05:24:39;;;;;;;23.48;14.68;;;;;;;;;;5025953;28;20041;-68
2021/05/15 05:27:08;;;;;;;24.17;14.90;;;;;;;;;;5025095;28;20073;-69
2021/05/15 05:29:35;;;;;;;20.15;14.27;;;;;;;;;;5024975;28;20088;-69
2021/05/15 05:32:01;;;;;;;20.75;14.52;;;;;;;;;;5027249;28;20042;-69
2021/05/15 05:34:27;;;;;;;26.75;16.38;;;;;;;;;;5020874;28;20045;-70
2021/05/15 05:36:54;;;;;;;22.30;16.08;;;;;;;;;;5023733;28;20056;-68
2021/05/15 05:39:21;;;;;;;22.65;14.60;;;;;;;;;;5024092;28;20076;-68
2021/05/15 05:41:48;;;;;;;21.17;15.23;;;;;;;;;;5029184;28;20046;-67
2021/05/15 05:44:14;;;;;;;26.65;15.48;;;;;;;;;;5025140;28;20065;-68
2021/05/15 05:46:41;;;;;;;21.23;14.88;;;;;;;;;;5022313;28;20042;-69
2021/05/15 05:49:07;;;;;;;23.02;15.82;;;;;;;;;;5025653;28;20041;-68
2021/05/15 05:51:34;;;;;;;23.65;15.23;;;;;;;;;;5024525;28;20213;-68
2021/05/15 05:54:00;;;;;;;23.83;14.82;;;;;;;;;;5024230;28;20037;-69
2021/05/15 05:56:26;;;;;;;21.38;15.07;;;;;;;;;;5006587;28;20057;-69
2021/05/15 05:58:53;;;;;;;23.85;16.02;;;;;;;;;;5023974;28;20095;-69
2021/05/15 06:01:19;;;;;;;26.25;15.35;;;;;;;;;;5026528;28;20053;-69
2021/05/15 06:03:45;;;;;;;27.23;14.68;;;;;;;;;;5021614;28;21257;-69
2021/05/15 06:06:12;;;;;;;24.30;14.82;;;;;;;;;;5026459;28;20041;-69
2021/05/15 06:08:39;;;;;;;22.95;15.23;;;;;;;;;;5020421;28;20401;-69
2021/05/15 06:11:06;;;;;;;24.30;15.13;;;;;;;;;;5021818;28;20044;-69
2021/05/15 06:13:32;;;;;;;21.85;14.93;;;;;;;;;;5025568;28;20060;-69
2021/05/15 06:15:59;;;;;;;23.17;15.07;;;;;;;;;;5023711;28;20082;-70
2021/05/15 06:18:25;;;;;;;22.52;15.43;;;;;;;;;;5021517;28;20044;-69
2021/05/15 06:20:51;;;;;;;21.42;14.88;;;;;;;;;;5028274;28;20071;-69
2021/05/15 06:23:17;;;;;;;24.70;15.55;;;;;;;;;;5029136;28;20053;-69
2021/05/15 06:25:44;;;;;;;24.85;15.93;;;;;;;;;;5028375;28;20135;-69
2021/05/15 06:28:11;;;;;;;24.17;16.13;;;;;;;;;;5028698;28;20034;-69
2021/05/15 06:30:38;;;;;;;23.85;15.63;;;;;;;;;;5025391;28;20490;-69
2021/05/15 06:33:04;;;;;;;28.50;16.25;;;;;;;;;;5028376;28;20037;-69
2021/05/15 06:35:32;;;;;;;26.17;15.55;;;;;;;;;;5028315;28;20666;-69
2021/05/15 06:38:00;;;;;;;25.05;16.85;;;;;;;;;;5027764;28;20041;-69
2021/05/15 06:40:26;;;;;;;25.52;15.70;;;;;;;;;;5028620;28;20140;-69
2021/05/15 06:42:52;;;;;;;25.50;15.95;;;;;;;;;;5026809;28;20049;-68
2021/05/15 06:45:19;;;;;;;26.58;15.73;;;;;;;;;;5019702;28;20089;-68
2021/05/15 06:47:45;;;;;;;23.55;15.57;;;;;;;;;;5027492;28;20065;-69
2021/05/15 06:50:11;;;;;;;23.25;15.68;;;;;;;;;;4998176;28;20045;-68
2021/05/15 06:52:38;;;;;;;23.52;15.60;;;;;;;;;;5027027;28;20041;-69
2021/05/15 06:55:07;;;;;;;22.92;15.25;;;;;;;;;;5027169;28;20493;-69
2021/05/15 06:57:33;;;;;;;25.20;16.00;;;;;;;;;;5027113;28;20057;-69
2021/05/15 07:00:00;;;;;;;28.15;15.63;;;;;;;;;;5026833;28;20048;-69
2021/05/15 07:02:26;;;;;;;23.13;15.05;;;;;;;;;;5028834;28;20443;-69
2021/05/15 07:04:52;;;;;;;25.30;15.35;;;;;;;;;;5027705;28;20511;-68
2021/05/15 07:07:20;;;;;;;23.10;15.20;;;;;;;;;;5025832;28;20481;-69
2021/05/15 07:09:49;;;;;;;25.65;15.70;;;;;;;;;;5028380;28;20049;-69
2021/05/15 07:12:16;;;;;;;30.88;16.63;;;;;;;;;;5025418;28;20144;-68
2021/05/15 07:14:42;;;;;;;27.90;16.85;;;;;;;;;;5025399;28;20038;-69
2021/05/15 07:17:08;;;;;;;23.20;16.20;;;;;;;;;;5025124;28;20053;-69
2021/05/15 07:19:35;;;;;;;27.40;15.23;;;;;;;;;;5027029;28;20045;-69
2021/05/15 07:22:01;;;;;;;25.23;14.82;;;;;;;;;;5026419;28;20060;-69
2021/05/15 07:24:27;;;;;;;21.00;14.73;;;;;;;;;;5022258;28;20125;-69
2021/05/15 07:26:53;;;;;;;25.38;15.57;;;;;;;;;;5025911;28;20493;-69
2021/05/15 07:29:20;;;;;;;23.55;15.13;;;;;;;;;;5025215;28;20068;-69
2021/05/15 07:31:46;;;;;;;26.27;15.45;;;;;;;;;;5025955;28;20041;-68
2021/05/15 07:34:12;;;;;;;21.30;15.68;;;;;;;;;;5025566;28;20049;-69
2021/05/15 07:36:38;;;;;;;20.98;14.88;;;;;;;;;;5027161;28;20111;-70
2021/05/15 07:39:06;;;;;;;26.85;16.15;;;;;;;;;;5026399;28;20052;-68
2021/05/15 07:41:33;;;;;;;32.08;16.15;;;;;;;;;;5008494;28;20042;-71
2021/05/15 07:44:00;;;;;;;23.42;16.88;;;;;;;;;;5028473;28;20057;-71
2021/05/15 07:46:26;;;;;;;25.73;15.52;;;;;;;;;;5008831;28;20079;-70
2021/05/15 07:48:52;;;;;;;24.35;16.33;;;;;;;;;;5026620;28;20549;-69
2021/05/15 07:51:21;;;;;;;22.83;15.93;;;;;;;;;;5025662;28;20863;-70
2021/05/15 07:53:49;;;;;;;26.20;16.17;;;;;;;;;;5026573;28;20084;-83
2021/05/15 07:56:16;;;;;;;26.15;16.48;;;;;;;;;;5006645;28;20568;-76
2021/05/15 07:58:42;;;;;;;23.60;16.38;;;;;;;;;;5026249;28;20049;-70
2021/05/15 08:01:08;;;;;;;23.25;16.05;;;;;;;;;;5027005;28;20211;-70
2021/05/15 08:03:35;;;;;;;26.45;16.52;;;;;;;;;;5023842;28;20050;-82
2021/05/15 08:06:01;;;;;;;25.25;16.38;;;;;;;;;;5024826;28;20072;-69
2021/05/15 08:08:27;;;;;;;24.98;16.55;;;;;;;;;;5026992;28;20096;-69
2021/05/15 08:10:54;;;;;;;26.33;16.27;;;;;;;;;;5026089;28;20049;-70
2021/05/15 08:13:20;;;;;;;23.42;16.20;;;;;;;;;;5031228;28;20477;-71
2021/05/15 08:15:46;;;;;;;25.17;16.00;;;;;;;;;;5028956;28;20534;-69
2021/05/15 08:18:13;;;;;;;28.35;16.58;;;;;;;;;;5029275;28;20037;-69
2021/05/15 08:20:39;;;;;;;24.17;15.23;;;;;;;;;;5027951;28;20050;-70
2021/05/15 08:23:05;;;;;;;23.13;16.30;;;;;;;;;;5030138;28;20033;-69
2021/05/15 08:25:32;;;;;;;26.98;17.73;;;;;;;;;;5028297;28;20094;-69
2021/05/15 08:28:01;;;;;;;23.23;15.63;;;;;;;;;;5027834;28;20132;-86
2021/05/15 08:30:29;;;;;;;30.85;17.38;;;;;;;;;;5030122;28;20088;-73
2021/05/15 08:32:56;;;;;;;24.00;15.85;;;;;;;;;;5005036;28;20037;-72
2021/05/15 08:35:24;;;;;;;22.95;15.38;;;;;;;;;;5028502;28;20397;-72
2021/05/15 08:37:51;;;;;;;28.48;18.02;;;;;;;;;;5028985;28;20060;-72
2021/05/15 08:40:18;;;;;;;27.30;16.42;;;;;;;;;;5031738;28;20050;-73
2021/05/15 08:42:45;;;;;;;24.42;15.95;;;;;;;;;;5025589;28;20437;-73
2021/05/15 08:45:14;;;;;;;28.35;16.98;;;;;;;;;;5028498;28;20045;-74
2021/05/15 08:47:41;;;;;;;24.50;15.93;;;;;;;;;;5031556;28;20037;-73
2021/05/15 08:50:09;;;;;;;25.92;16.02;;;;;;;;;;5011031;28;20441;-72
2021/05/15 08:52:38;;;;;;;25.33;16.58;;;;;;;;;;5030083;28;20111;-73
2021/05/15 08:55:05;;;;;;;24.48;16.27;;;;;;;;;;5028796;28;20109;-72
2021/05/15 08:57:32;;;;;;;24.65;16.58;;;;;;;;;;5030299;28;20144;-71
2021/05/15 08:59:58;;;;;;;27.98;17.88;;;;;;;;;;5030180;28;20104;-72
2021/05/15 09:02:24;;;;;;;27.70;17.23;;;;;;;;;;5013686;28;20196;-72
2021/05/15 09:04:51;;;;;;;25.23;17.10;;;;;;;;;;5031464;28;20037;-72
2021/05/15 09:07:17;;;;;;;670.60;605.78;;;;;;;;;;5030585;28;20096;-71
2021/05/15 09:09:43;;;;;;;103.72;93.55;;;;;;;;;;5006478;28;20052;-73
2021/05/15 09:12:10;;;;;;;63.53;33.08;;;;;;;;;;5029249;28;20045;-73
2021/05/15 09:14:36;;;;;;;30.20;19.30;;;;;;;;;;5030163;28;20096;-72
2021/05/15 09:17:02;;;;;;;30.35;17.63;;;;;;;;;;5013152;28;20148;-72
2021/05/15 09:19:29;;;;;;;25.58;16.85;;;;;;;;;;5023098;28;20053;-73
2021/05/15 09:22:01;;;;;;;25.83;17.40;;;;;;;;;;5028959;28;20060;-74
2021/05/15 09:24:29;;;;;;;28.38;18.52;;;;;;;;;;5029505;28;20449;-73
2021/05/15 09:26:56;;;;;;;32.08;18.35;;;;;;;;;;5030071;28;20572;-75
2021/05/15 09:29:22;;;;;;;33.83;18.80;;;;;;;;;;5030663;28;20091;-72
2021/05/15 09:31:48;;;;;;;27.90;17.25;;;;;;;;;;5030825;28;20046;-73
2021/05/15 09:34:15;;;;;;;38.17;21.52;;;;;;;;;;5027982;28;20037;-73
2021/05/15 09:36:43;;;;;;;32.90;20.20;;;;;;;;;;5028758;28;20089;-74
2021/05/15 09:39:15;;;;;;;32.63;19.42;;;;;;;;;;5026865;28;20045;-73
2021/05/15 09:41:44;;;;;;;32.80;20.88;;;;;;;;;;5028581;28;20056;-73
2021/05/15 09:44:12;;;;;;;38.13;20.85;;;;;;;;;;5010546;28;20046;-72
2021/05/15 09:46:40;;;;;;;28.88;20.20;;;;;;;;;;5027443;28;20049;-74
2021/05/15 09:49:07;;;;;;;32.85;20.13;;;;;;;;;;5025616;28;20056;-75
2021/05/15 09:51:33;;;;;;;32.90;19.55;;;;;;;;;;5006191;28;20196;-74
2021/05/15 09:54:14;;;;;;;30.38;19.40;;;;;;;;;;5022294;28;20040;-75
2021/05/15 09:56:40;;;;;;;29.75;18.70;;;;;;;;;;5021319;28;20033;-74
2021/05/15 09:59:06;;;;;;;31.90;17.90;;;;;;;;;;5028390;28;20045;-73
2021/05/15 10:01:40;;;;;;;32.92;19.85;;;;;;;;;;5028791;28;20056;-71
2021/05/15 10:04:06;;;;;;;31.40;19.67;;;;;;;;;;5026302;28;20049;-72
2021/05/15 10:06:32;;;;;;;30.27;19.05;;;;;;;;;;5028764;28;20104;-72
2021/05/15 10:08:59;;;;;;;29.98;19.77;;;;;;;;;;5026866;28;20060;-73
2021/05/15 10:11:25;;;;;;;27.17;18.90;;;;;;;;;;5027841;28;20106;-73
2021/05/15 10:13:52;;;;;;;33.47;18.83;;;;;;;;;;5027450;28;20073;-73
2021/05/15 10:16:19;;;;;;;35.85;19.55;;;;;;;;;;5027969;28;20119;-74
2021/05/15 10:18:45;;;;;;;33.08;19.60;;;;;;;;;;5028045;28;20033;-75
2021/05/15 10:21:12;;;;;;;30.77;18.55;;;;;;;;;;5002797;28;20448;-72
2021/05/15 10:23:39;;;;;;;32.53;19.40;;;;;;;;;;5027373;28;20101;-70
2021/05/15 10:26:08;;;;;;;38.33;20.10;;;;;;;;;;5027339;28;20072;-69
2021/05/15 10:28:36;;;;;;;35.60;19.83;;;;;;;;;;5028462;28;20473;-82
2021/05/15 10:31:05;;;;;;;30.15;18.88;;;;;;;;;;5028981;28;20037;-83
2021/05/15 10:33:31;;;;;;;41.67;22.27;;;;;;;;;;5028306;28;20124;-86
2021/05/15 10:35:58;;;;;;;32.75;20.30;;;;;;;;;;5029412;28;20044;-88
2021/05/15 10:38:34;;;;;;;31.08;19.55;;;;;;;;;;5028591;28;20064;-88
2021/05/15 10:41:09;;;;;;;43.58;21.80;;;;;;;;;;5011636;28;20045;-88
2021/05/15 10:43:36;;;;;;;34.22;19.70;;;;;;;;;;5028756;28;20057;-85
2021/05/15 10:46:18;;;;;;;36.97;20.77;;;;;;;;;;5024845;28;20056;-87
2021/05/15 10:48:56;;;;;;;30.67;20.30;;;;;;;;;;5028186;28;20068;-88
2021/05/15 10:51:33;;;;;;;30.38;19.58;;;;;;;;;;5023592;28;20048;-89
2021/05/15 10:54:00;;;;;;;35.50;21.27;;;;;;;;;;5027575;28;20056;-86
2021/05/15 10:56:29;;;;;;;29.63;19.40;;;;;;;;;;5019878;28;20049;-88
2021/05/15 10:59:02;;;;;;;32.50;18.88;;;;;;;;;;5006458;28;20437;-88
2021/05/15 11:01:28;;;;;;;35.20;19.67;;;;;;;;;;5024962;28;20448;-87
2021/05/15 11:03:54;;;;;;;30.65;20.10;;;;;;;;;;5006920;28;20046;-87
2021/05/15 11:06:22;;;;;;;37.45;21.50;;;;;;;;;;5024181;28;20045;-89
2021/05/15 11:08:57;;;;;;;29.55;20.25;;;;;;;;;;5026387;28;20037;-86
2021/05/15 11:11:35;;;;;;;33.10;20.80;;;;;;;;;;5027590;28;20061;-85
2021/05/15 11:14:01;;;;;;;45.58;22.88;;;;;;;;;;5026553;28;20405;-85
2021/05/15 11:16:34;;;;;;;33.35;21.00;;;;;;;;;;5028304;28;20497;-85
2021/05/15 11:19:07;;;;;;;36.95;20.63;;;;;;;;;;5027920;28;20065;-85
2021/05/15 11:21:34;;;;;;;33.75;21.05;;;;;;;;;;5025658;28;20141;-85
2021/05/15 11:24:01;;;;;;;36.45;22.50;;;;;;;;;;5028126;28;20080;-85
2021/05/15 11:26:36;;;;;;;34.97;21.80;;;;;;;;;;5026308;28;20076;-85
2021/05/15 11:29:03;;;;;;;39.53;23.17;;;;;;;;;;5026714;28;20038;-85
2021/05/15 11:31:30;;;;;;;42.33;23.30;;;;;;;;;;5025947;28;20049;-85
2021/05/15 11:34:09;;;;;;;34.83;22.00;;;;;;;;;;5026556;28;20045;-86
2021/05/15 11:36:39;;;;;;;37.08;23.73;;;;;;;;;;5028918;28;20033;-81
2021/05/15 11:39:06;;;;;;;37.58;22.45;;;;;;;;;;5027808;28;20124;-87
2021/05/15 11:41:32;;;;;;;44.47;24.60;;;;;;;;;;5027688;28;20041;-87
2021/05/15 11:44:01;;;;;;;37.13;23.30;;;;;;;;;;5029249;28;20169;-88
2021/05/15 11:46:27;;;;;;;64.13;31.40;;;;;;;;;;5010727;28;20041;-89
2021/05/15 11:48:54;;;;;;;41.85;23.08;;;;;;;;;;5032829;28;20080;-92
2021/05/15 11:51:20;;;;;;;36.55;22.75;;;;;;;;;;5030937;28;20045;-92
2021/05/15 11:53:47;;;;;;;61.22;29.45;;;;;;;;;;5033476;28;20060;-88
2021/05/15 11:56:16;;;;;;;35.10;23.02;;;;;;;;;;5032906;28;20492;-87
2021/05/15 11:58:44;;;;;;;40.60;24.58;;;;;;;;;;5028895;28;20052;-90
2021/05/15 12:01:16;;;;;;;36.47;20.98;;;;;;;;;;5032352;28;20060;-93
2021/05/15 12:03:43;;;;;;;34.42;22.23;;;;;;;;;;5031460;28;20034;-91
2021/05/15 12:06:16;;;;;;;37.75;24.88;;;;;;;;;;5033615;28;20041;-92
2021/05/15 12:08:43;;;;;;;37.65;22.60;;;;;;;;;;5030553;28;20042;-92
2021/05/15 12:11:10;;;;;;;34.67;22.27;;;;;;;;;;5033436;28;20523;-92
2021/05/15 12:13:36;;;;;;;36.33;21.73;;;;;;;;;;5014250;28;20083;-87
2021/05/15 12:16:03;;;;;;;36.83;23.05;;;;;;;;;;5029909;28;20107;-86
2021/05/15 12:18:30;;;;;;;35.53;23.52;;;;;;;;;;5031422;28;20139;-86
2021/05/15 12:20:57;;;;;;;37.85;24.88;;;;;;;;;;5032880;28;20049;-82
2021/05/15 12:23:24;;;;;;;35.78;23.08;;;;;;;;;;5031369;28;20064;-85
2021/05/15 12:25:57;;;;;;;35.40;22.15;;;;;;;;;;5028674;28;20041;-87
2021/05/15 12:28:25;;;;;;;42.15;25.30;;;;;;;;;;5030574;28;20144;-87
2021/05/15 12:30:52;;;;;;;37.22;22.88;;;;;;;;;;5029595;28;20092;-84
2021/05/15 12:33:19;;;;;;;37.13;24.75;;;;;;;;;;5030812;28;20041;-83
2021/05/15 12:36:04;;;;;;;36.40;23.90;;;;;;;;;;5024640;28;20053;-86
2021/05/15 12:38:31;;;;;;;39.40;25.70;;;;;;;;;;5024787;28;20103;-86
2021/05/15 12:41:06;;;;;;;38.17;25.40;;;;;;;;;;5025158;28;20042;-86
2021/05/15 12:43:32;;;;;;;41.58;27.23;;;;;;;;;;5025409;28;20049;-86
2021/05/15 12:46:07;;;;;;;40.72;26.98;;;;;;;;;;5028222;28;20046;-86
2021/05/15 12:48:39;;;;;;;;;;;;;;;;;;5028405;28;20063;-86
2021/05/15 12:51:07;;;;;;;40.45;27.77;;;;;;;;;;5030718;28;19921;-86
2021/05/15 12:53:33;;;;;;;40.53;26.52;;;;;;;;;;5026710;28;20117;-87
2021/05/15 12:56:00;;;;;;;39.13;27.50;;;;;;;;;;5030605;28;20065;-85
2021/05/15 12:58:27;;;;;;;38.20;26.63;;;;;;;;;;5030425;28;20033;-83
2021/05/15 13:00:56;;;;;;;37.45;26.08;;;;;;;;;;5030634;28;20045;-84
2021/05/15 13:03:23;;;;;;;37.30;27.00;;;;;;;;;;5030001;28;20033;-84
2021/05/15 13:05:50;;;;;;;33.55;23.77;;;;;;;;;;5029777;28;20053;-84
2021/05/15 13:08:17;;;;;;;32.55;23.70;;;;;;;;;;5013589;28;20037;-84
2021/05/15 13:10:43;;;;;;;31.23;23.10;;;;;;;;;;5027997;28;20394;-85
2021/05/15 13:13:10;;;;;;;31.42;22.20;;;;;;;;;;5028566;28;20041;-84
2021/05/15 13:15:38;;;;;;;31.17;23.08;;;;;;;;;;5029675;28;20103;-85
2021/05/15 13:18:14;;;;;;;26.88;20.35;;;;;;;;;;5030116;28;20084;-84
2021/05/15 13:20:41;;;;;;;25.88;20.35;;;;;;;;;;5028670;28;20045;-86
2021/05/15 13:23:07;;;;;;;29.70;22.52;;;;;;;;;;5030300;28;20136;-85
2021/05/15 13:25:34;;;;;;;27.45;19.05;;;;;;;;;;5011589;28;20063;-84
2021/05/15 13:28:00;;;;;;;28.98;21.15;;;;;;;;;;5029426;28;20191;-80
2021/05/15 13:30:26;;;;;;;29.48;20.42;;;;;;;;;;5029082;28;20465;-80
2021/05/15 13:32:53;;;;;;;32.25;21.75;;;;;;;;;;5028093;28;20037;-80
2021/05/15 13:35:19;;;;;;;29.23;21.70;;;;;;;;;;5030609;28;20390;-85
2021/05/15 13:37:45;;;;;;;29.60;21.30;;;;;;;;;;5027751;28;20030;-85
2021/05/15 13:40:12;;;;;;;25.80;19.38;;;;;;;;;;5028931;28;20478;-85
2021/05/15 13:42:38;;;;;;;23.30;17.10;;;;;;;;;;5026789;28;20474;-84
2021/05/15 13:45:05;;;;;;;28.33;19.83;;;;;;;;;;5012483;28;20180;-84
2021/05/15 13:47:32;;;;;;;24.80;18.83;;;;;;;;;;5029583;28;20045;-85
2021/05/15 13:49:58;;;;;;;24.17;17.75;;;;;;;;;;5029723;28;20453;-85
2021/05/15 13:52:25;;;;;;;24.52;18.50;;;;;;;;;;5028928;28;20442;-85
2021/05/15 13:54:52;;;;;;;23.83;17.27;;;;;;;;;;5029117;28;20110;-84
2021/05/15 13:57:18;;;;;;;22.80;16.90;;;;;;;;;;5012041;28;20042;-85
2021/05/15 13:59:45;;;;;;;21.98;17.48;;;;;;;;;;5026431;28;20044;-85
2021/05/15 14:02:11;;;;;;;22.02;16.98;;;;;;;;;;5026790;28;20499;-85
2021/05/15 14:04:38;;;;;;;24.05;16.77;;;;;;;;;;5029178;28;20052;-85
2021/05/15 14:07:04;;;;;;;22.05;16.90;;;;;;;;;;5026219;28;20046;-85
2021/05/15 14:09:30;;;;;;;23.23;17.48;;;;;;;;;;5028211;28;20056;-85
2021/05/15 14:11:57;;;;;;;22.23;16.80;;;;;;;;;;5028247;28;20041;-85
2021/05/15 14:14:23;;;;;;;23.08;17.42;;;;;;;;;;5027900;28;20060;-85
2021/05/15 14:16:49;;;;;;;23.42;17.05;;;;;;;;;;5027596;28;20496;-85